createdAt,value
2022-12-25T00:02:23.910Z,4.29
2022-12-25T00:04:50.697Z,4.22
2022-12-25T00:07:19.912Z,4.13
2022-12-25T00:09:49.186Z,4.10
2022-12-25T00:12:16.063Z,4.07
2022-12-25T00:14:42.762Z,4.06
2022-12-25T00:17:09.442Z,4.06
2022-12-25T00:19:36.340Z,4.06
2022-12-25T00:22:03.108Z,4.00
2022-12-25T00:24:29.768Z,3.94
2022-12-25T00:26:58.935Z,4.06
2022-12-25T00:29:25.583Z,3.81
2022-12-25T00:31:55.199Z,3.65
2022-12-25T00:34:24.226Z,3.46
2022-12-25T00:36:52.044Z,3.34
2022-12-25T00:39:19.154Z,3.27
2022-12-25T00:42:04.412Z,3.12
2022-12-25T00:44:31.151Z,3.01
2022-12-25T00:46:57.893Z,2.91
2022-12-25T00:49:24.912Z,2.81
2022-12-25T00:51:52.214Z,2.72
2022-12-25T00:54:20.417Z,2.63
2022-12-25T00:56:53.102Z,2.51
2022-12-25T00:59:19.877Z,2.43
2022-12-25T01:01:50.172Z,2.38
2022-12-25T01:04:18.081Z,2.37
2022-12-25T01:06:44.782Z,2.43
2022-12-25T01:09:29.712Z,2.42
2022-12-25T01:12:00.025Z,2.45
2022-12-25T01:14:27.168Z,2.42
2022-12-25T01:16:56.701Z,2.39
2022-12-25T01:19:24.367Z,2.32
2022-12-25T01:21:51.019Z,2.29
2022-12-25T01:24:17.735Z,2.28
2022-12-25T01:26:44.342Z,2.24
2022-12-25T01:29:15.013Z,2.18
2022-12-25T01:31:53.589Z,2.13
2022-12-25T01:34:20.278Z,2.08
2022-12-25T01:36:49.880Z,2.01
2022-12-25T01:39:16.629Z,1.96
2022-12-25T01:41:46.377Z,1.91
2022-12-25T01:44:22.099Z,1.90
2022-12-25T01:46:51.297Z,1.87
2022-12-25T01:49:25.848Z,1.82
2022-12-25T01:52:12.199Z,1.73
2022-12-25T01:54:44.020Z,1.62
2022-12-25T01:57:21.785Z,1.59
2022-12-25T01:59:49.261Z,1.48
2022-12-25T02:02:16.409Z,1.41
2022-12-25T02:05:05.426Z,1.34
2022-12-25T02:07:41.387Z,1.28
2022-12-25T02:10:12.035Z,1.24
2022-12-25T02:12:41.509Z,1.21
2022-12-25T02:15:14.834Z,1.13
2022-12-25T02:18:09.651Z,1.06
2022-12-25T02:20:47.505Z,1.05
2022-12-25T02:23:19.934Z,1.01
2022-12-25T02:25:55.397Z,0.98
2022-12-25T02:28:46.269Z,0.91
2022-12-25T02:31:27.334Z,0.86
2022-12-25T02:34:35.038Z,0.81
2022-12-25T02:37:28.109Z,0.77
2022-12-25T02:40:03.828Z,0.77
2022-12-25T02:43:19.980Z,0.76
2022-12-25T02:46:28.338Z,0.77
2022-12-25T02:49:25.576Z,0.75
2022-12-25T02:52:17.500Z,0.69
2022-12-25T02:55:25.858Z,0.69
2022-12-25T02:58:21.381Z,0.67
2022-12-25T03:01:18.077Z,0.64
2022-12-25T03:04:08.904Z,0.65
2022-12-25T03:06:44.830Z,0.70
2022-12-25T03:09:38.278Z,0.71
2022-12-25T03:12:27.811Z,0.69
2022-12-25T03:15:13.094Z,0.66
2022-12-25T03:17:39.776Z,0.70
2022-12-25T03:20:25.745Z,0.66
2022-12-25T03:23:15.511Z,0.58
2022-12-25T03:26:06.994Z,0.52
2022-12-25T03:28:36.057Z,0.48
2022-12-25T03:31:28.388Z,0.45
2022-12-25T03:34:33.341Z,0.43
2022-12-25T03:37:52.642Z,0.36
2022-12-25T03:41:26.269Z,0.31
2022-12-25T03:44:31.531Z,0.30
2022-12-25T03:47:45.711Z,0.25
2022-12-25T03:50:36.615Z,0.18
2022-12-25T03:53:30.385Z,0.13
2022-12-25T03:56:16.856Z,0.12
2022-12-25T03:59:23.789Z,0.06
2022-12-25T04:02:10.527Z,-0.01
2022-12-25T04:05:00.410Z,-0.02
2022-12-25T04:07:52.697Z,-0.06
2022-12-25T04:10:38.216Z,-0.06
2022-12-25T04:13:23.445Z,-0.08
2022-12-25T04:16:10.558Z,-0.12
2022-12-25T04:18:55.974Z,-0.17
2022-12-25T04:21:41.052Z,-0.18
2022-12-25T04:24:26.496Z,-0.19
2022-12-25T04:27:14.951Z,-0.21
2022-12-25T04:30:00.448Z,-0.26
2022-12-25T04:32:45.954Z,-0.27
2022-12-25T04:35:32.471Z,-0.31
2022-12-25T04:37:59.145Z,-0.30
2022-12-25T04:40:25.797Z,-0.32
2022-12-25T04:42:53.009Z,-0.30
2022-12-25T04:45:22.719Z,-0.33
2022-12-25T04:47:49.381Z,-0.34
2022-12-25T04:50:18.673Z,-0.37
2022-12-25T04:52:45.321Z,-0.40
2022-12-25T04:55:27.515Z,-0.38
2022-12-25T04:57:56.418Z,-0.33
2022-12-25T05:00:23.135Z,-0.32
2022-12-25T05:02:50.673Z,-0.35
2022-12-25T05:05:17.664Z,-0.41
2022-12-25T05:07:44.276Z,-0.45
2022-12-25T05:10:11.362Z,-0.45
2022-12-25T05:12:37.968Z,-0.42
2022-12-25T05:15:07.945Z,-0.46
2022-12-25T05:17:34.866Z,-0.49
2022-12-25T05:20:02.295Z,-0.52
2022-12-25T05:22:28.946Z,-0.54
2022-12-25T05:24:55.571Z,-0.55
2022-12-25T05:27:22.271Z,-0.52
2022-12-25T05:29:48.893Z,-0.49
2022-12-25T05:32:15.566Z,-0.43
2022-12-25T05:34:42.200Z,-0.44
2022-12-25T05:37:11.886Z,-0.48
2022-12-25T05:39:41.343Z,-0.47
2022-12-25T05:42:10.324Z,-0.50
2022-12-25T05:44:44.626Z,-0.50
2022-12-25T05:47:13.815Z,-0.51
2022-12-25T05:49:47.319Z,-0.51
2022-12-25T05:52:14.357Z,-0.40
2022-12-25T05:54:47.790Z,-0.38
2022-12-25T05:57:17.271Z,-0.43
2022-12-25T05:59:47.396Z,-0.41
2022-12-25T06:02:17.421Z,-0.31
2022-12-25T06:04:44.084Z,-0.37
2022-12-25T06:07:11.424Z,-0.39
2022-12-25T06:09:40.707Z,-0.41
2022-12-25T06:12:11.231Z,-0.42
2022-12-25T06:14:37.916Z,-0.41
2022-12-25T06:17:04.648Z,-0.40
2022-12-25T06:19:31.349Z,-0.44
2022-12-25T06:21:58.124Z,-0.46
2022-12-25T06:24:25.033Z,-0.48
2022-12-25T06:26:56.101Z,-0.49
2022-12-25T06:29:22.723Z,-0.49
2022-12-25T06:31:57.550Z,-0.50
2022-12-25T06:34:24.468Z,-0.46
2022-12-25T06:36:57.065Z,-0.41
2022-12-25T06:39:25.590Z,-0.39
2022-12-25T06:41:52.264Z,-0.40
2022-12-25T06:44:19.234Z,-0.36
2022-12-25T06:46:53.344Z,-0.39
2022-12-25T06:49:20.993Z,-0.33
2022-12-25T06:51:50.457Z,-0.31
2022-12-25T06:54:17.072Z,-0.31
2022-12-25T06:56:43.682Z,-0.29
2022-12-25T06:59:13.037Z,-0.31
2022-12-25T07:01:46.460Z,-0.34
2022-12-25T07:04:23.920Z,-0.38
2022-12-25T07:06:56.315Z,-0.41
2022-12-25T07:09:23.010Z,-0.38
2022-12-25T07:11:50.735Z,-0.33
2022-12-25T07:14:24.468Z,-0.31
2022-12-25T07:16:51.773Z,-0.27
2022-12-25T07:19:19.351Z,-0.26
2022-12-25T07:21:49.176Z,-0.23
2022-12-25T07:24:20.614Z,-0.11
2022-12-25T07:26:47.430Z,-0.17
2022-12-25T07:29:14.131Z,-0.23
2022-12-25T07:31:40.804Z,-0.23
2022-12-25T07:34:07.474Z,-0.29
2022-12-25T07:36:34.399Z,-0.27
2022-12-25T07:39:16.656Z,-0.23
2022-12-25T07:41:44.539Z,-0.09
2022-12-25T07:44:11.086Z,-0.12
2022-12-25T07:46:37.729Z,-0.12
2022-12-25T07:49:11.732Z,-0.10
2022-12-25T07:51:38.402Z,-0.09
2022-12-25T07:54:07.925Z,-0.05
2022-12-25T07:56:34.548Z,0.12
2022-12-25T07:59:01.195Z,0.15
2022-12-25T08:01:28.609Z,0.16
2022-12-25T08:03:57.932Z,0.17
2022-12-25T08:06:34.489Z,0.20
2022-12-25T08:09:10.370Z,0.24
2022-12-25T08:11:37.966Z,0.32
2022-12-25T08:14:08.938Z,0.36
2022-12-25T08:16:35.863Z,0.36
2022-12-25T08:19:02.744Z,0.49
2022-12-25T08:21:29.341Z,0.54
2022-12-25T08:23:56.010Z,0.58
2022-12-25T08:26:23.821Z,0.79
2022-12-25T08:28:50.528Z,0.88
2022-12-25T08:31:19.657Z,0.78
2022-12-25T08:33:47.741Z,0.73
2022-12-25T08:36:15.115Z,0.71
2022-12-25T08:38:42.202Z,0.72
2022-12-25T08:41:10.270Z,0.74
2022-12-25T08:43:39.868Z,0.77
2022-12-25T08:46:07.155Z,1.00
2022-12-25T08:48:34.685Z,1.08
2022-12-25T08:51:02.022Z,1.17
2022-12-25T08:53:28.696Z,1.32
2022-12-25T08:56:00.945Z,1.24
2022-12-25T08:58:28.673Z,1.20
2022-12-25T09:00:58.153Z,1.22
2022-12-25T09:03:25.022Z,1.26
2022-12-25T09:05:52.565Z,1.31
2022-12-25T09:08:22.709Z,1.36
2022-12-25T09:10:49.548Z,1.43
2022-12-25T09:13:17.983Z,1.56
2022-12-25T09:15:44.673Z,1.66
2022-12-25T09:18:11.641Z,1.75
2022-12-25T09:20:41.218Z,1.84
2022-12-25T09:23:13.525Z,1.91
2022-12-25T09:25:41.008Z,2.02
2022-12-25T09:28:11.040Z,2.04
2022-12-25T09:30:37.664Z,2.10
2022-12-25T09:33:04.429Z,2.18
2022-12-25T09:35:31.106Z,2.20
2022-12-25T09:37:58.884Z,2.26
2022-12-25T09:40:26.123Z,2.31
2022-12-25T09:42:54.946Z,2.47
2022-12-25T09:45:27.149Z,2.48
2022-12-25T09:47:57.081Z,2.45
2022-12-25T09:50:55.969Z,2.59
2022-12-25T09:53:26.885Z,2.70
2022-12-25T09:56:06.973Z,2.75
2022-12-25T09:58:34.429Z,2.79
2022-12-25T10:01:33.957Z,2.76
2022-12-25T10:04:21.771Z,2.84
2022-12-25T10:07:09.440Z,2.89
2022-12-25T10:09:45.061Z,3.09
2022-12-25T10:12:36.840Z,3.18
2022-12-25T10:15:21.255Z,3.29
2022-12-25T10:17:56.818Z,3.34
2022-12-25T10:20:35.298Z,3.34
2022-12-25T10:23:09.812Z,3.32
2022-12-25T10:25:38.794Z,3.33
2022-12-25T10:28:14.374Z,3.54
2022-12-25T10:30:45.037Z,3.55
2022-12-25T10:33:17.176Z,3.59
2022-12-25T10:35:46.857Z,3.51
2022-12-25T10:38:16.260Z,3.56
2022-12-25T10:41:20.255Z,3.61
2022-12-25T10:43:53.245Z,3.62
2022-12-25T10:46:22.279Z,3.66
2022-12-25T10:48:52.721Z,3.73
2022-12-25T10:51:37.673Z,3.76
2022-12-25T10:54:23.582Z,3.79
2022-12-25T10:57:18.905Z,3.89
2022-12-25T10:59:51.951Z,3.86
2022-12-25T11:02:30.787Z,3.94
2022-12-25T11:05:15.200Z,4.00
2022-12-25T11:07:51.341Z,4.11
2022-12-25T11:10:18.051Z,4.13
2022-12-25T11:12:49.071Z,4.16
2022-12-25T11:15:45.030Z,4.21
2022-12-25T11:18:23.775Z,4.27
2022-12-25T11:20:58.205Z,4.33
2022-12-25T11:23:27.169Z,4.42
2022-12-25T11:25:59.657Z,4.45
2022-12-25T11:28:31.014Z,4.58
2022-12-25T11:31:21.715Z,4.58
2022-12-25T11:34:02.921Z,4.61
2022-12-25T11:36:42.463Z,4.57
2022-12-25T11:39:29.059Z,4.58
2022-12-25T11:42:25.775Z,4.63
2022-12-25T11:44:56.573Z,4.59
2022-12-25T11:47:42.211Z,4.59
2022-12-25T11:50:34.216Z,4.64
2022-12-25T11:53:22.024Z,4.54
2022-12-25T11:55:55.983Z,4.58
2022-12-25T11:58:45.685Z,4.51
2022-12-25T12:01:22.460Z,4.57
2022-12-25T12:03:49.465Z,4.53
2022-12-25T12:06:38.090Z,4.57
2022-12-25T12:09:23.174Z,4.61
2022-12-25T12:12:17.217Z,4.59
2022-12-25T12:15:00.463Z,4.57
2022-12-25T12:17:27.320Z,4.62
2022-12-25T12:19:54.086Z,4.68
2022-12-25T12:22:28.208Z,4.65
2022-12-25T12:25:03.992Z,4.70
2022-12-25T12:27:41.116Z,4.73
2022-12-25T12:30:23.933Z,4.84
2022-12-25T12:32:54.278Z,4.83
2022-12-25T12:35:29.004Z,4.87
2022-12-25T12:37:59.771Z,4.84
2022-12-25T12:40:31.947Z,4.84
2022-12-25T12:42:59.507Z,4.89
2022-12-25T12:45:28.419Z,4.87
2022-12-25T12:47:55.895Z,4.86
2022-12-25T12:50:43.101Z,4.86
2022-12-25T12:53:17.427Z,4.89
2022-12-25T12:55:44.178Z,4.82
2022-12-25T12:58:34.993Z,4.81
2022-12-25T13:01:28.046Z,4.80
2022-12-25T13:03:57.672Z,4.81
2022-12-25T13:06:56.074Z,4.81
2022-12-25T13:09:46.784Z,4.84
2022-12-25T13:12:21.152Z,4.87
2022-12-25T13:14:49.936Z,4.90
2022-12-25T13:17:22.747Z,4.95
2022-12-25T13:19:56.419Z,4.97
2022-12-25T13:22:30.321Z,5.00
2022-12-25T13:25:00.563Z,5.05
2022-12-25T13:27:30.573Z,5.03
2022-12-25T13:29:58.106Z,5.02
2022-12-25T13:32:38.213Z,4.97
2022-12-25T13:35:11.725Z,5.14
2022-12-25T13:37:38.908Z,5.11
2022-12-25T13:40:07.664Z,5.14
2022-12-25T13:42:45.792Z,5.06
2022-12-25T13:45:29.074Z,5.01
2022-12-25T13:47:56.262Z,4.95
2022-12-25T13:50:28.793Z,4.98
2022-12-25T13:52:58.972Z,4.87
2022-12-25T13:55:29.916Z,4.84
2022-12-25T13:58:03.317Z,4.84
2022-12-25T14:00:38.699Z,4.91
2022-12-25T14:03:09.888Z,4.95
2022-12-25T14:05:42.714Z,4.94
2022-12-25T14:08:15.975Z,4.95
2022-12-25T14:10:46.507Z,4.97
2022-12-25T14:13:15.240Z,5.03
2022-12-25T14:15:45.084Z,5.13
2022-12-25T14:18:16.798Z,5.18
2022-12-25T14:21:07.370Z,5.18
2022-12-25T14:23:49.372Z,5.18
2022-12-25T14:26:24.615Z,5.14
2022-12-25T14:29:11.205Z,5.24
2022-12-25T14:31:44.103Z,5.19
2022-12-25T14:34:23.274Z,5.24
2022-12-25T14:36:51.859Z,5.30
2022-12-25T14:39:28.401Z,5.29
2022-12-25T14:41:55.268Z,5.32
2022-12-25T14:44:38.844Z,5.30
2022-12-25T14:47:11.104Z,5.28
2022-12-25T14:49:38.095Z,5.31
2022-12-25T14:52:24.221Z,5.33
2022-12-25T14:55:25.267Z,5.32
2022-12-25T14:58:04.976Z,5.41
2022-12-25T15:00:42.553Z,5.44
2022-12-25T15:03:23.379Z,5.42
2022-12-25T15:06:20.622Z,5.47
2022-12-25T15:08:59.015Z,5.47
2022-12-25T15:11:25.852Z,5.51
2022-12-25T15:13:52.654Z,5.55
2022-12-25T15:16:34.531Z,5.51
2022-12-25T15:19:02.053Z,5.59
2022-12-25T15:21:31.525Z,5.62
2022-12-25T15:24:00.037Z,5.67
2022-12-25T15:26:28.564Z,5.65
2022-12-25T15:28:55.487Z,5.70
2022-12-25T15:31:25.322Z,5.77
2022-12-25T15:33:53.847Z,5.71
2022-12-25T15:36:21.179Z,5.69
2022-12-25T15:38:47.856Z,5.69
2022-12-25T15:41:57.603Z,5.74
2022-12-25T15:44:25.013Z,5.76
2022-12-25T15:46:52.453Z,5.72
2022-12-25T15:49:19.251Z,5.71
2022-12-25T15:51:47.895Z,5.75
2022-12-25T15:54:17.414Z,5.78
2022-12-25T15:56:52.198Z,5.82
2022-12-25T15:59:20.534Z,5.83
2022-12-25T16:01:55.852Z,5.82
2022-12-25T16:04:24.234Z,5.86
2022-12-25T16:06:51.968Z,5.83
2022-12-25T16:09:22.697Z,5.83
2022-12-25T16:11:50.186Z,5.88
2022-12-25T16:14:17.140Z,5.90
2022-12-25T16:16:46.810Z,5.92
2022-12-25T16:19:13.493Z,5.95
2022-12-25T16:21:45.091Z,5.96
2022-12-25T16:24:12.055Z,5.96
2022-12-25T16:26:38.885Z,5.99
2022-12-25T16:29:07.511Z,5.97
2022-12-25T16:31:35.628Z,5.95
2022-12-25T16:34:03.387Z,6.03
2022-12-25T16:36:30.712Z,6.06
2022-12-25T16:38:57.432Z,6.04
2022-12-25T16:41:24.107Z,6.08
2022-12-25T16:43:50.893Z,6.03
2022-12-25T16:46:20.757Z,6.07
2022-12-25T16:48:47.460Z,6.10
2022-12-25T16:51:20.261Z,6.14
2022-12-25T16:53:47.496Z,6.15
2022-12-25T16:56:19.927Z,6.18
2022-12-25T16:58:47.662Z,6.20
2022-12-25T17:01:17.559Z,6.19
2022-12-25T17:03:44.744Z,6.22
2022-12-25T17:06:14.720Z,6.28
2022-12-25T17:08:41.694Z,6.31
2022-12-25T17:11:10.907Z,6.30
2022-12-25T17:13:37.573Z,6.32
2022-12-25T17:16:16.025Z,6.38
2022-12-25T17:18:42.903Z,6.46
2022-12-25T17:21:09.769Z,6.45
2022-12-25T17:23:37.712Z,6.47
2022-12-25T17:26:05.456Z,6.49
2022-12-25T17:28:39.417Z,6.49
2022-12-25T17:31:07.565Z,6.49
2022-12-25T17:33:41.278Z,6.54
2022-12-25T17:36:11.969Z,6.53
2022-12-25T17:38:39.030Z,6.48
2022-12-25T17:41:07.501Z,6.51
2022-12-25T17:43:37.419Z,6.53
2022-12-25T17:46:15.303Z,6.61
2022-12-25T17:48:42.485Z,6.57
2022-12-25T17:51:11.151Z,6.59
2022-12-25T17:53:40.018Z,6.58
2022-12-25T17:56:08.318Z,6.65
2022-12-25T17:58:34.968Z,6.64
2022-12-25T18:01:15.042Z,6.66
2022-12-25T18:03:47.856Z,6.67
2022-12-25T18:06:17.753Z,6.67
2022-12-25T18:08:46.287Z,6.63
2022-12-25T18:11:23.533Z,6.66
2022-12-25T18:13:53.531Z,6.71
2022-12-25T18:16:23.383Z,6.76
2022-12-25T18:18:52.700Z,6.73
2022-12-25T18:21:22.030Z,6.75
2022-12-25T18:23:49.258Z,6.71
2022-12-25T18:26:15.998Z,6.68
2022-12-25T18:28:44.067Z,6.67
2022-12-25T18:31:20.352Z,6.72
2022-12-25T18:33:47.967Z,6.70
2022-12-25T18:36:15.755Z,6.69
2022-12-25T18:38:42.928Z,6.70
2022-12-25T18:41:10.876Z,6.75
2022-12-25T18:43:54.283Z,6.76
2022-12-25T18:46:28.446Z,6.76
2022-12-25T18:48:56.929Z,6.76
2022-12-25T18:51:24.093Z,6.74
2022-12-25T18:53:51.328Z,6.77
2022-12-25T18:56:18.685Z,6.82
2022-12-25T18:58:47.095Z,6.82
2022-12-25T19:01:17.287Z,6.84
2022-12-25T19:03:45.183Z,6.89
2022-12-25T19:06:28.362Z,6.86
2022-12-25T19:08:59.218Z,6.85
2022-12-25T19:11:32.120Z,6.85
2022-12-25T19:13:58.845Z,6.85
2022-12-25T19:16:28.614Z,6.85
2022-12-25T19:18:55.487Z,6.85
2022-12-25T19:21:26.391Z,6.91
2022-12-25T19:23:57.209Z,6.97
2022-12-25T19:26:23.826Z,6.99
2022-12-25T19:28:56.543Z,6.98
2022-12-25T19:31:23.286Z,7.03
2022-12-25T19:33:49.934Z,7.00
2022-12-25T19:36:16.801Z,6.97
2022-12-25T19:38:44.224Z,6.99
2022-12-25T19:41:17.215Z,7.02
2022-12-25T19:43:47.682Z,7.02
2022-12-25T19:46:29.673Z,7.05
2022-12-25T19:48:57.748Z,7.01
2022-12-25T19:51:30.059Z,6.99
2022-12-25T19:53:57.145Z,7.00
2022-12-25T19:56:25.287Z,7.06
2022-12-25T19:58:52.289Z,7.09
2022-12-25T20:01:21.013Z,7.11
2022-12-25T20:03:54.991Z,7.11
2022-12-25T20:06:26.141Z,7.12
2022-12-25T20:08:56.503Z,7.22
2022-12-25T20:11:25.218Z,7.20
2022-12-25T20:13:51.971Z,7.19
2022-12-25T20:16:18.653Z,7.23
2022-12-25T20:18:45.373Z,7.26
2022-12-25T20:21:18.362Z,7.23
2022-12-25T20:23:50.450Z,7.21
2022-12-25T20:26:22.088Z,7.22
2022-12-25T20:28:48.887Z,7.24
2022-12-25T20:31:30.543Z,7.22
2022-12-25T20:34:09.606Z,7.27
2022-12-25T20:36:37.992Z,7.33
2022-12-25T20:39:13.767Z,7.30
2022-12-25T20:41:40.978Z,7.33
2022-12-25T20:44:10.045Z,7.27
2022-12-25T20:46:37.436Z,7.29
2022-12-25T20:49:05.094Z,7.30
2022-12-25T20:51:32.039Z,7.31
2022-12-25T20:53:58.802Z,7.30
2022-12-25T20:56:28.126Z,7.25
2022-12-25T20:58:59.142Z,7.27
2022-12-25T21:01:30.456Z,7.30
2022-12-25T21:03:58.095Z,7.28
2022-12-25T21:06:28.086Z,7.26
2022-12-25T21:08:55.727Z,7.35
2022-12-25T21:11:22.544Z,7.43
2022-12-25T21:13:56.033Z,7.41
2022-12-25T21:16:23.409Z,7.35
2022-12-25T21:18:53.983Z,7.37
2022-12-25T21:21:21.881Z,7.36
2022-12-25T21:23:48.596Z,7.37
2022-12-25T21:26:21.397Z,7.36
2022-12-25T21:28:50.151Z,7.31
2022-12-25T21:31:18.022Z,7.30
2022-12-25T21:33:54.632Z,7.31
2022-12-25T21:36:34.616Z,7.31
2022-12-25T21:39:06.943Z,7.30
2022-12-25T21:41:39.553Z,7.32
2022-12-25T21:44:07.065Z,7.34
2022-12-25T21:46:33.982Z,7.35
2022-12-25T21:49:03.947Z,7.40
2022-12-25T21:51:57.753Z,7.41
2022-12-25T21:54:27.681Z,7.43
2022-12-25T21:56:54.378Z,7.50
2022-12-25T21:59:22.475Z,7.50
2022-12-25T22:01:51.145Z,7.54
2022-12-25T22:04:20.029Z,7.50
2022-12-25T22:07:05.707Z,7.52
2022-12-25T22:09:32.919Z,7.53
2022-12-25T22:12:18.691Z,7.55
2022-12-25T22:14:55.782Z,7.54
2022-12-25T22:17:49.722Z,7.54
2022-12-25T22:20:34.729Z,7.56
2022-12-25T22:23:02.111Z,7.60
2022-12-25T22:25:28.788Z,7.60
2022-12-25T22:27:55.912Z,7.69
2022-12-25T22:30:25.637Z,7.70
2022-12-25T22:32:52.515Z,7.72
2022-12-25T22:35:20.167Z,7.70
2022-12-25T22:37:47.163Z,7.68
2022-12-25T22:40:16.534Z,7.70
2022-12-25T22:42:49.310Z,7.71
2022-12-25T22:45:16.484Z,7.71
2022-12-25T22:47:43.270Z,7.71
2022-12-25T22:50:19.713Z,7.76
2022-12-25T22:52:47.219Z,7.78
2022-12-25T22:55:23.376Z,7.78
2022-12-25T22:57:50.445Z,7.74
2022-12-25T23:00:17.746Z,7.75
2022-12-25T23:02:47.304Z,7.80
2022-12-25T23:05:20.186Z,7.80
2022-12-25T23:07:47.111Z,7.81
2022-12-25T23:10:13.747Z,7.84
2022-12-25T23:12:59.278Z,7.87
2022-12-25T23:15:27.712Z,7.89
2022-12-25T23:18:13.890Z,7.94
2022-12-25T23:20:59.054Z,7.98
2022-12-25T23:23:44.424Z,8.00
2022-12-25T23:26:13.476Z,8.05
2022-12-25T23:29:01.777Z,8.05
2022-12-25T23:31:37.649Z,8.10
2022-12-25T23:34:05.448Z,8.10
2022-12-25T23:36:41.297Z,8.15
2022-12-25T23:39:10.417Z,8.13
2022-12-25T23:41:40.100Z,8.14
2022-12-25T23:44:13.318Z,8.18
2022-12-25T23:46:40.918Z,8.19
2022-12-25T23:49:08.496Z,8.21
2022-12-25T23:51:43.516Z,8.29
2022-12-25T23:54:25.087Z,8.32
2022-12-25T23:56:52.719Z,8.34
2022-12-25T23:59:22.512Z,8.29
